Aérodrome :
LOGIN :

S'inscrire | Disclaimer

   EN    FR    IT 

 










Légende :    VFR   VFR Marginal   IFR   IFR Intensif   IFR Très Intensif
Visi : 
Plafond : 
>= 8 km
>= 3000ft
5 à 8 km
1000 à 3000 ft
1500m à 5 km
500 à 1000 ft
800 à 1500m
200 à 500 ft
< 800m
< 200 ft
Symboles :   Orages  Brouillard  Fortes neiges  Fortes précipitations  Vent > 20 kt
SIGMETs :   Divers  Orages  Givrage  Turbulence  Onde Orograph.  Cendres Volcan.






- Altitude de l'aérodrome : 308 ft


ESCF - Malmen AB

DERNIER METAR :
  • 300720Z 01013KT CAVOK M00/M10 Q1024

METARs EXPIRÉS :
  • 300650Z 01010KT CAVOK M00/M08 Q1024
  • 300620Z 01010KT CAVOK M01/M08 Q1023
  • 300550Z 36010KT 9999 FEW032 M01/M07 Q1023
  • 300520Z 36009KT 9999 SCT031 M01/M07 Q1022
  • 300450Z 36009KT 9999 SCT040 M01/M07 Q1022

TAF TAF ESCF
Valide du 30 à 05h jusqu'au 30 à 14h UTC


300450Z 3005/3014 36011KT 9999 SCT040
BECMG 3006/3008 01016G22KT
TEMPO 3011/3014 01019G26KT RMK MIL



MET'MAP, la Météo Aéronautique d'un coup d'oeil ! - Copyright ORBIFLY Décembre 2007 - Disclaimer

ORBIFLY MET'MAP TEAM :

Programmation & Développement : Alexandra Zaïnal
Sur une idée originale de : Baudouin d'Aumeries
Assistance à la programmation : Marc-Olivier Méhu
Soutien technique & logistique : Manuel Goepfert

Contact : metmap@orbifly.com




SOURCES & CREDITS :

   NOAA